sensor_id;sensor_type;location;lat;lon;timestamp;P1;durP1;ratioP1;P2;durP2;ratioP2
18142;SDS011;9197;50.930;3.140;2022-09-09T00:02:18;3.57;;;2.43;;
18142;SDS011;9197;50.930;3.140;2022-09-09T00:04:47;6.10;;;3.23;;
18142;SDS011;9197;50.930;3.140;2022-09-09T00:07:17;8.40;;;2.20;;
18142;SDS011;9197;50.930;3.140;2022-09-09T00:09:47;7.87;;;2.53;;
18142;SDS011;9197;50.930;3.140;2022-09-09T00:12:17;3.87;;;2.53;;
18142;SDS011;9197;50.930;3.140;2022-09-09T00:14:50;4.73;;;1.90;;
18142;SDS011;9197;50.930;3.140;2022-09-09T00:17:21;6.97;;;2.50;;
18142;SDS011;9197;50.930;3.140;2022-09-09T00:19:53;6.97;;;3.00;;
18142;SDS011;9197;50.930;3.140;2022-09-09T00:22:22;7.30;;;2.47;;
18142;SDS011;9197;50.930;3.140;2022-09-09T00:24:51;5.67;;;2.00;;
18142;SDS011;9197;50.930;3.140;2022-09-09T00:27:21;4.07;;;1.90;;
18142;SDS011;9197;50.930;3.140;2022-09-09T00:29:54;4.33;;;2.13;;
18142;SDS011;9197;50.930;3.140;2022-09-09T00:32:24;3.10;;;1.50;;
18142;SDS011;9197;50.930;3.140;2022-09-09T00:34:55;5.17;;;2.13;;
18142;SDS011;9197;50.930;3.140;2022-09-09T00:37:23;3.53;;;1.47;;
18142;SDS011;9197;50.930;3.140;2022-09-09T00:39:52;3.30;;;1.60;;
18142;SDS011;9197;50.930;3.140;2022-09-09T00:42:23;6.87;;;2.00;;
18142;SDS011;9197;50.930;3.140;2022-09-09T00:44:55;5.30;;;1.60;;
18142;SDS011;9197;50.930;3.140;2022-09-09T00:47:31;7.17;;;1.83;;
18142;SDS011;9197;50.930;3.140;2022-09-09T00:50:03;7.87;;;2.37;;
18142;SDS011;9197;50.930;3.140;2022-09-09T00:52:36;3.93;;;1.57;;
18142;SDS011;9197;50.930;3.140;2022-09-09T00:55:07;2.43;;;1.57;;
18142;SDS011;9197;50.930;3.140;2022-09-09T00:57:38;4.33;;;1.90;;
18142;SDS011;9197;50.930;3.140;2022-09-09T01:00:18;7.27;;;1.83;;
18142;SDS011;9197;50.930;3.140;2022-09-09T01:02:48;5.67;;;2.13;;
18142;SDS011;9197;50.930;3.140;2022-09-09T01:05:20;6.67;;;1.93;;
18142;SDS011;9197;50.930;3.140;2022-09-09T01:07:49;6.97;;;1.70;;
18142;SDS011;9197;50.930;3.140;2022-09-09T01:10:20;4.60;;;2.10;;
18142;SDS011;9197;50.930;3.140;2022-09-09T01:12:51;5.20;;;2.10;;
18142;SDS011;9197;50.930;3.140;2022-09-09T01:15:21;7.90;;;2.60;;
18142;SDS011;9197;50.930;3.140;2022-09-09T01:17:51;7.10;;;2.27;;
18142;SDS011;9197;50.930;3.140;2022-09-09T01:20:20;11.70;;;3.33;;
18142;SDS011;9197;50.930;3.140;2022-09-09T01:22:51;7.00;;;2.03;;
18142;SDS011;9197;50.930;3.140;2022-09-09T01:25:21;8.13;;;2.30;;
18142;SDS011;9197;50.930;3.140;2022-09-09T01:27:52;6.90;;;2.90;;
18142;SDS011;9197;50.930;3.140;2022-09-09T01:30:21;5.20;;;3.00;;
18142;SDS011;9197;50.930;3.140;2022-09-09T01:32:50;6.57;;;2.20;;
18142;SDS011;9197;50.930;3.140;2022-09-09T01:35:21;10.37;;;2.33;;
18142;SDS011;9197;50.930;3.140;2022-09-09T01:37:50;6.23;;;2.17;;
18142;SDS011;9197;50.930;3.140;2022-09-09T01:40:17;7.80;;;2.30;;
18142;SDS011;9197;50.930;3.140;2022-09-09T01:42:45;5.77;;;2.10;;
18142;SDS011;9197;50.930;3.140;2022-09-09T01:45:13;6.73;;;1.80;;
18142;SDS011;9197;50.930;3.140;2022-09-09T01:47:40;5.13;;;2.40;;
18142;SDS011;9197;50.930;3.140;2022-09-09T01:50:08;5.43;;;1.97;;
18142;SDS011;9197;50.930;3.140;2022-09-09T01:52:37;8.00;;;1.83;;
18142;SDS011;9197;50.930;3.140;2022-09-09T01:55:04;6.80;;;2.13;;
18142;SDS011;9197;50.930;3.140;2022-09-09T01:57:33;7.90;;;2.27;;
18142;SDS011;9197;50.930;3.140;2022-09-09T02:00:03;5.00;;;2.00;;
18142;SDS011;9197;50.930;3.140;2022-09-09T02:02:35;3.40;;;1.90;;
18142;SDS011;9197;50.930;3.140;2022-09-09T02:05:06;6.70;;;2.07;;
18142;SDS011;9197;50.930;3.140;2022-09-09T02:07:38;4.93;;;2.20;;
18142;SDS011;9197;50.930;3.140;2022-09-09T02:10:09;6.83;;;2.00;;
18142;SDS011;9197;50.930;3.140;2022-09-09T02:12:38;9.70;;;2.23;;
18142;SDS011;9197;50.930;3.140;2022-09-09T02:15:07;2.93;;;1.73;;
18142;SDS011;9197;50.930;3.140;2022-09-09T02:17:39;6.67;;;2.20;;
18142;SDS011;9197;50.930;3.140;2022-09-09T02:20:09;5.63;;;2.30;;
18142;SDS011;9197;50.930;3.140;2022-09-09T02:22:38;5.33;;;1.87;;
18142;SDS011;9197;50.930;3.140;2022-09-09T02:25:06;7.67;;;2.87;;
18142;SDS011;9197;50.930;3.140;2022-09-09T02:27:35;8.07;;;2.03;;
18142;SDS011;9197;50.930;3.140;2022-09-09T02:30:03;5.80;;;2.40;;
18142;SDS011;9197;50.930;3.140;2022-09-09T02:32:31;9.17;;;3.00;;
18142;SDS011;9197;50.930;3.140;2022-09-09T02:35:02;5.63;;;2.70;;
18142;SDS011;9197;50.930;3.140;2022-09-09T02:37:31;7.03;;;2.70;;
18142;SDS011;9197;50.930;3.140;2022-09-09T02:40:00;5.83;;;2.57;;
18142;SDS011;9197;50.930;3.140;2022-09-09T02:42:27;11.00;;;2.50;;
18142;SDS011;9197;50.930;3.140;2022-09-09T02:44:55;9.17;;;2.53;;
18142;SDS011;9197;50.930;3.140;2022-09-09T02:47:26;6.57;;;2.63;;
18142;SDS011;9197;50.930;3.140;2022-09-09T02:49:57;7.83;;;3.10;;
18142;SDS011;9197;50.930;3.140;2022-09-09T02:52:30;7.73;;;2.60;;
18142;SDS011;9197;50.930;3.140;2022-09-09T02:55:02;10.53;;;3.53;;
18142;SDS011;9197;50.930;3.140;2022-09-09T02:57:31;6.70;;;2.97;;
18142;SDS011;9197;50.930;3.140;2022-09-09T03:00:00;10.83;;;2.80;;
18142;SDS011;9197;50.930;3.140;2022-09-09T03:02:27;8.40;;;2.33;;
18142;SDS011;9197;50.930;3.140;2022-09-09T03:04:55;9.03;;;2.57;;
18142;SDS011;9197;50.930;3.140;2022-09-09T03:07:23;9.57;;;3.20;;
18142;SDS011;9197;50.930;3.140;2022-09-09T03:09:51;9.47;;;3.00;;
18142;SDS011;9197;50.930;3.140;2022-09-09T03:12:20;7.10;;;2.90;;
18142;SDS011;9197;50.930;3.140;2022-09-09T03:14:47;7.83;;;2.30;;
18142;SDS011;9197;50.930;3.140;2022-09-09T03:17:14;9.07;;;3.07;;
18142;SDS011;9197;50.930;3.140;2022-09-09T03:19:42;7.77;;;2.63;;
18142;SDS011;9197;50.930;3.140;2022-09-09T03:22:09;10.87;;;3.37;;
18142;SDS011;9197;50.930;3.140;2022-09-09T03:24:36;6.60;;;2.60;;
18142;SDS011;9197;50.930;3.140;2022-09-09T03:27:05;5.93;;;2.60;;
18142;SDS011;9197;50.930;3.140;2022-09-09T03:29:32;4.23;;;2.53;;
18142;SDS011;9197;50.930;3.140;2022-09-09T03:31:59;8.00;;;2.73;;
18142;SDS011;9197;50.930;3.140;2022-09-09T03:34:26;7.27;;;2.60;;
18142;SDS011;9197;50.930;3.140;2022-09-09T03:36:53;9.33;;;3.23;;
18142;SDS011;9197;50.930;3.140;2022-09-09T03:39:20;7.80;;;3.10;;
18142;SDS011;9197;50.930;3.140;2022-09-09T03:41:48;10.73;;;3.63;;
18142;SDS011;9197;50.930;3.140;2022-09-09T03:44:16;11.17;;;3.40;;
18142;SDS011;9197;50.930;3.140;2022-09-09T03:46:43;5.13;;;2.43;;
18142;SDS011;9197;50.930;3.140;2022-09-09T03:49:11;8.97;;;2.80;;
18142;SDS011;9197;50.930;3.140;2022-09-09T03:51:38;8.63;;;2.97;;
18142;SDS011;9197;50.930;3.140;2022-09-09T03:54:05;12.10;;;3.60;;
18142;SDS011;9197;50.930;3.140;2022-09-09T03:56:35;8.40;;;2.90;;
18142;SDS011;9197;50.930;3.140;2022-09-09T03:59:02;8.53;;;3.47;;
18142;SDS011;9197;50.930;3.140;2022-09-09T04:01:31;12.27;;;4.10;;
18142;SDS011;9197;50.930;3.140;2022-09-09T04:03:58;15.03;;;4.20;;
18142;SDS011;9197;50.930;3.140;2022-09-09T04:06:27;11.30;;;3.60;;
18142;SDS011;9197;50.930;3.140;2022-09-09T04:08:55;8.23;;;3.20;;
18142;SDS011;9197;50.930;3.140;2022-09-09T04:11:22;11.70;;;3.43;;
18142;SDS011;9197;50.930;3.140;2022-09-09T04:13:49;13.00;;;3.60;;
18142;SDS011;9197;50.930;3.140;2022-09-09T04:16:17;10.87;;;4.10;;
18142;SDS011;9197;50.930;3.140;2022-09-09T04:18:46;11.53;;;3.30;;
18142;SDS011;9197;50.930;3.140;2022-09-09T04:21:14;6.93;;;3.63;;
18142;SDS011;9197;50.930;3.140;2022-09-09T04:23:42;8.10;;;3.23;;
18142;SDS011;9197;50.930;3.140;2022-09-09T04:26:09;8.53;;;3.17;;
18142;SDS011;9197;50.930;3.140;2022-09-09T04:28:37;10.87;;;3.93;;
18142;SDS011;9197;50.930;3.140;2022-09-09T04:31:05;11.43;;;4.23;;
18142;SDS011;9197;50.930;3.140;2022-09-09T04:33:32;7.50;;;3.47;;
18142;SDS011;9197;50.930;3.140;2022-09-09T04:36:01;9.60;;;3.30;;
18142;SDS011;9197;50.930;3.140;2022-09-09T04:38:28;13.00;;;4.20;;
18142;SDS011;9197;50.930;3.140;2022-09-09T04:40:55;13.53;;;4.53;;
18142;SDS011;9197;50.930;3.140;2022-09-09T04:43:23;11.80;;;4.20;;
18142;SDS011;9197;50.930;3.140;2022-09-09T04:45:52;8.67;;;3.20;;
18142;SDS011;9197;50.930;3.140;2022-09-09T04:48:19;12.33;;;4.90;;
18142;SDS011;9197;50.930;3.140;2022-09-09T04:50:53;15.27;;;5.47;;
18142;SDS011;9197;50.930;3.140;2022-09-09T04:53:22;19.77;;;4.80;;
18142;SDS011;9197;50.930;3.140;2022-09-09T04:55:50;10.80;;;3.73;;
18142;SDS011;9197;50.930;3.140;2022-09-09T04:58:17;16.77;;;4.33;;
18142;SDS011;9197;50.930;3.140;2022-09-09T05:00:46;12.20;;;4.80;;
18142;SDS011;9197;50.930;3.140;2022-09-09T05:03:13;11.93;;;3.73;;
18142;SDS011;9197;50.930;3.140;2022-09-09T05:05:41;13.03;;;4.17;;
18142;SDS011;9197;50.930;3.140;2022-09-09T05:08:08;10.27;;;4.20;;
18142;SDS011;9197;50.930;3.140;2022-09-09T05:10:37;8.63;;;4.40;;
18142;SDS011;9197;50.930;3.140;2022-09-09T05:13:06;15.20;;;4.73;;
18142;SDS011;9197;50.930;3.140;2022-09-09T05:15:34;12.50;;;4.90;;
18142;SDS011;9197;50.930;3.140;2022-09-09T05:18:01;10.23;;;4.20;;
18142;SDS011;9197;50.930;3.140;2022-09-09T05:20:29;19.63;;;5.67;;
18142;SDS011;9197;50.930;3.140;2022-09-09T05:22:56;15.63;;;4.90;;
18142;SDS011;9197;50.930;3.140;2022-09-09T05:25:24;13.27;;;4.90;;
18142;SDS011;9197;50.930;3.140;2022-09-09T05:27:53;11.47;;;4.40;;
18142;SDS011;9197;50.930;3.140;2022-09-09T05:30:20;16.07;;;4.70;;
18142;SDS011;9197;50.930;3.140;2022-09-09T05:32:48;13.80;;;5.00;;
18142;SDS011;9197;50.930;3.140;2022-09-09T05:35:15;23.13;;;5.83;;
18142;SDS011;9197;50.930;3.140;2022-09-09T05:37:44;15.40;;;4.93;;
18142;SDS011;9197;50.930;3.140;2022-09-09T05:40:11;14.23;;;4.63;;
18142;SDS011;9197;50.930;3.140;2022-09-09T05:42:38;17.80;;;5.20;;
18142;SDS011;9197;50.930;3.140;2022-09-09T05:45:08;10.40;;;5.43;;
18142;SDS011;9197;50.930;3.140;2022-09-09T05:47:35;15.33;;;5.17;;
18142;SDS011;9197;50.930;3.140;2022-09-09T05:50:03;12.47;;;5.00;;
18142;SDS011;9197;50.930;3.140;2022-09-09T05:52:31;14.17;;;4.97;;
18142;SDS011;9197;50.930;3.140;2022-09-09T05:54:58;11.07;;;4.80;;
18142;SDS011;9197;50.930;3.140;2022-09-09T05:57:25;8.63;;;4.27;;
18142;SDS011;9197;50.930;3.140;2022-09-09T05:59:52;11.63;;;5.90;;
18142;SDS011;9197;50.930;3.140;2022-09-09T06:02:21;17.47;;;4.77;;
18142;SDS011;9197;50.930;3.140;2022-09-09T06:04:48;16.13;;;5.80;;
18142;SDS011;9197;50.930;3.140;2022-09-09T06:07:15;12.80;;;4.87;;
18142;SDS011;9197;50.930;3.140;2022-09-09T06:09:42;12.83;;;4.70;;
18142;SDS011;9197;50.930;3.140;2022-09-09T06:12:10;13.77;;;5.73;;
18142;SDS011;9197;50.930;3.140;2022-09-09T06:14:37;12.87;;;4.67;;
18142;SDS011;9197;50.930;3.140;2022-09-09T06:17:04;10.53;;;4.50;;
18142;SDS011;9197;50.930;3.140;2022-09-09T06:19:33;12.13;;;4.60;;
18142;SDS011;9197;50.930;3.140;2022-09-09T06:22:00;12.73;;;4.87;;
18142;SDS011;9197;50.930;3.140;2022-09-09T06:24:27;9.37;;;3.80;;
18142;SDS011;9197;50.930;3.140;2022-09-09T06:26:55;13.83;;;5.23;;
18142;SDS011;9197;50.930;3.140;2022-09-09T06:29:22;12.03;;;5.13;;
18142;SDS011;9197;50.930;3.140;2022-09-09T06:31:49;10.00;;;4.80;;
18142;SDS011;9197;50.930;3.140;2022-09-09T06:34:16;16.20;;;5.53;;
18142;SDS011;9197;50.930;3.140;2022-09-09T06:36:45;15.10;;;5.63;;
18142;SDS011;9197;50.930;3.140;2022-09-09T06:39:12;12.27;;;5.63;;
18142;SDS011;9197;50.930;3.140;2022-09-09T06:41:40;15.60;;;5.93;;
18142;SDS011;9197;50.930;3.140;2022-09-09T06:44:08;15.07;;;5.63;;
18142;SDS011;9197;50.930;3.140;2022-09-09T06:46:36;21.53;;;5.47;;
18142;SDS011;9197;50.930;3.140;2022-09-09T06:49:04;13.47;;;5.40;;
18142;SDS011;9197;50.930;3.140;2022-09-09T06:51:33;11.43;;;5.37;;
18142;SDS011;9197;50.930;3.140;2022-09-09T06:54:02;7.33;;;3.97;;
18142;SDS011;9197;50.930;3.140;2022-09-09T06:56:30;14.27;;;5.00;;
18142;SDS011;9197;50.930;3.140;2022-09-09T06:58:58;16.70;;;5.60;;
18142;SDS011;9197;50.930;3.140;2022-09-09T07:01:29;12.73;;;5.90;;
18142;SDS011;9197;50.930;3.140;2022-09-09T07:03:57;14.23;;;4.80;;
18142;SDS011;9197;50.930;3.140;2022-09-09T07:06:26;17.23;;;6.70;;
18142;SDS011;9197;50.930;3.140;2022-09-09T07:08:54;14.83;;;5.27;;
18142;SDS011;9197;50.930;3.140;2022-09-09T07:11:24;18.93;;;6.00;;
18142;SDS011;9197;50.930;3.140;2022-09-09T07:13:52;15.57;;;5.53;;
18142;SDS011;9197;50.930;3.140;2022-09-09T07:16:20;14.23;;;6.27;;
18142;SDS011;9197;50.930;3.140;2022-09-09T07:18:48;11.63;;;5.30;;
18142;SDS011;9197;50.930;3.140;2022-09-09T07:21:16;12.97;;;5.43;;
18142;SDS011;9197;50.930;3.140;2022-09-09T07:23:44;14.03;;;5.43;;
18142;SDS011;9197;50.930;3.140;2022-09-09T07:26:12;12.53;;;4.80;;
18142;SDS011;9197;50.930;3.140;2022-09-09T07:28:41;13.10;;;5.73;;
18142;SDS011;9197;50.930;3.140;2022-09-09T07:31:12;13.30;;;5.50;;
18142;SDS011;9197;50.930;3.140;2022-09-09T07:33:41;12.07;;;5.40;;
18142;SDS011;9197;50.930;3.140;2022-09-09T07:36:09;12.87;;;5.60;;
18142;SDS011;9197;50.930;3.140;2022-09-09T07:38:39;19.80;;;7.73;;
18142;SDS011;9197;50.930;3.140;2022-09-09T07:41:06;10.77;;;5.47;;
18142;SDS011;9197;50.930;3.140;2022-09-09T07:43:36;11.87;;;4.47;;
18142;SDS011;9197;50.930;3.140;2022-09-09T07:46:05;9.93;;;5.60;;
18142;SDS011;9197;50.930;3.140;2022-09-09T07:48:32;10.87;;;5.07;;
18142;SDS011;9197;50.930;3.140;2022-09-09T07:51:04;13.13;;;5.17;;
18142;SDS011;9197;50.930;3.140;2022-09-09T07:53:32;12.83;;;5.27;;
18142;SDS011;9197;50.930;3.140;2022-09-09T07:56:05;12.20;;;4.67;;
18142;SDS011;9197;50.930;3.140;2022-09-09T07:58:34;10.40;;;4.47;;
18142;SDS011;9197;50.930;3.140;2022-09-09T08:01:07;13.90;;;5.47;;
18142;SDS011;9197;50.930;3.140;2022-09-09T08:03:34;14.83;;;5.57;;
18142;SDS011;9197;50.930;3.140;2022-09-09T08:06:02;10.27;;;5.90;;
18142;SDS011;9197;50.930;3.140;2022-09-09T08:08:29;14.97;;;5.97;;
18142;SDS011;9197;50.930;3.140;2022-09-09T08:11:03;9.77;;;5.03;;
18142;SDS011;9197;50.930;3.140;2022-09-09T08:13:32;11.70;;;4.93;;
18142;SDS011;9197;50.930;3.140;2022-09-09T08:16:03;8.30;;;4.27;;
18142;SDS011;9197;50.930;3.140;2022-09-09T08:18:32;8.53;;;4.47;;
18142;SDS011;9197;50.930;3.140;2022-09-09T08:21:04;13.00;;;5.20;;
18142;SDS011;9197;50.930;3.140;2022-09-09T08:23:31;12.00;;;4.63;;
18142;SDS011;9197;50.930;3.140;2022-09-09T08:26:03;13.23;;;4.53;;
18142;SDS011;9197;50.930;3.140;2022-09-09T08:28:30;8.90;;;4.83;;
18142;SDS011;9197;50.930;3.140;2022-09-09T08:31:04;8.03;;;4.47;;
18142;SDS011;9197;50.930;3.140;2022-09-09T08:33:33;11.67;;;4.67;;
18142;SDS011;9197;50.930;3.140;2022-09-09T08:36:01;10.23;;;3.63;;
18142;SDS011;9197;50.930;3.140;2022-09-09T08:38:29;8.50;;;3.40;;
18142;SDS011;9197;50.930;3.140;2022-09-09T08:40:57;5.20;;;3.07;;
18142;SDS011;9197;50.930;3.140;2022-09-09T08:43:26;6.15;;;2.70;;
18142;SDS011;9197;50.930;3.140;2022-09-09T08:45:55;5.22;;;2.05;;
18142;SDS011;9197;50.930;3.140;2022-09-09T08:48:31;4.60;;;2.47;;
18142;SDS011;9197;50.930;3.140;2022-09-09T08:51:04;7.20;;;2.45;;
18142;SDS011;9197;50.930;3.140;2022-09-09T08:53:34;5.72;;;1.80;;
18142;SDS011;9197;50.930;3.140;2022-09-09T08:56:06;3.80;;;1.63;;
18142;SDS011;9197;50.930;3.140;2022-09-09T08:58:35;5.83;;;2.23;;
18142;SDS011;9197;50.930;3.140;2022-09-09T09:01:28;3.80;;;1.80;;
18142;SDS011;9197;50.930;3.140;2022-09-09T09:04:00;7.30;;;1.80;;
18142;SDS011;9197;50.930;3.140;2022-09-09T09:06:34;4.90;;;1.52;;
18142;SDS011;9197;50.930;3.140;2022-09-09T09:09:05;5.13;;;1.77;;
18142;SDS011;9197;50.930;3.140;2022-09-09T09:11:36;3.80;;;1.97;;
18142;SDS011;9197;50.930;3.140;2022-09-09T09:14:05;2.97;;;1.70;;
18142;SDS011;9197;50.930;3.140;2022-09-09T09:16:36;4.57;;;1.77;;
18142;SDS011;9197;50.930;3.140;2022-09-09T09:19:05;5.33;;;1.90;;
18142;SDS011;9197;50.930;3.140;2022-09-09T09:21:39;3.50;;;2.00;;
18142;SDS011;9197;50.930;3.140;2022-09-09T09:24:12;4.17;;;1.30;;
18142;SDS011;9197;50.930;3.140;2022-09-09T09:26:43;3.73;;;1.53;;
18142;SDS011;9197;50.930;3.140;2022-09-09T09:29:12;3.23;;;1.60;;
18142;SDS011;9197;50.930;3.140;2022-09-09T09:31:42;5.87;;;2.37;;
18142;SDS011;9197;50.930;3.140;2022-09-09T09:34:09;3.47;;;2.57;;
18142;SDS011;9197;50.930;3.140;2022-09-09T09:36:40;3.57;;;1.83;;
18142;SDS011;9197;50.930;3.140;2022-09-09T09:39:09;2.37;;;1.73;;
18142;SDS011;9197;50.930;3.140;2022-09-09T09:41:37;3.37;;;2.10;;
18142;SDS011;9197;50.930;3.140;2022-09-09T09:44:05;7.00;;;1.97;;
18142;SDS011;9197;50.930;3.140;2022-09-09T09:46:46;3.30;;;2.17;;
18142;SDS011;9197;50.930;3.140;2022-09-09T09:49:13;4.20;;;1.85;;
18142;SDS011;9197;50.930;3.140;2022-09-09T09:51:42;2.75;;;1.55;;
18142;SDS011;9197;50.930;3.140;2022-09-09T09:54:13;3.28;;;1.75;;
18142;SDS011;9197;50.930;3.140;2022-09-09T09:56:41;2.83;;;1.55;;
18142;SDS011;9197;50.930;3.140;2022-09-09T09:59:19;3.63;;;1.77;;
18142;SDS011;9197;50.930;3.140;2022-09-09T10:01:46;4.15;;;1.83;;
18142;SDS011;9197;50.930;3.140;2022-09-09T10:04:14;3.40;;;1.58;;
18142;SDS011;9197;50.930;3.140;2022-09-09T10:06:44;5.43;;;1.90;;
18142;SDS011;9197;50.930;3.140;2022-09-09T10:09:20;2.33;;;1.70;;
18142;SDS011;9197;50.930;3.140;2022-09-09T10:11:49;2.70;;;1.50;;
18142;SDS011;9197;50.930;3.140;2022-09-09T10:14:19;6.00;;;1.50;;
18142;SDS011;9197;50.930;3.140;2022-09-09T10:16:51;3.57;;;1.70;;
18142;SDS011;9197;50.930;3.140;2022-09-09T10:19:26;3.20;;;1.40;;
18142;SDS011;9197;50.930;3.140;2022-09-09T10:22:05;4.03;;;2.07;;
18142;SDS011;9197;50.930;3.140;2022-09-09T10:24:44;2.63;;;1.23;;
18142;SDS011;9197;50.930;3.140;2022-09-09T10:27:18;3.90;;;1.42;;
18142;SDS011;9197;50.930;3.140;2022-09-09T10:29:56;3.63;;;1.30;;
18142;SDS011;9197;50.930;3.140;2022-09-09T10:32:33;1.20;;;1.10;;
18142;SDS011;9197;50.930;3.140;2022-09-09T10:35:04;2.55;;;1.52;;
18142;SDS011;9197;50.930;3.140;2022-09-09T10:40:24;2.45;;;1.50;;
18142;SDS011;9197;50.930;3.140;2022-09-09T10:42:56;6.57;;;1.85;;
18142;SDS011;9197;50.930;3.140;2022-09-09T10:45:27;4.80;;;1.70;;
18142;SDS011;9197;50.930;3.140;2022-09-09T10:48:02;8.57;;;1.77;;
18142;SDS011;9197;50.930;3.140;2022-09-09T10:53:24;2.85;;;1.20;;
18142;SDS011;9197;50.930;3.140;2022-09-09T10:55:57;3.92;;;2.08;;
18142;SDS011;9197;50.930;3.140;2022-09-09T10:58:27;3.22;;;1.27;;
18142;SDS011;9197;50.930;3.140;2022-09-09T11:00:56;2.05;;;1.20;;
18142;SDS011;9197;50.930;3.140;2022-09-09T11:03:25;3.65;;;1.30;;
18142;SDS011;9197;50.930;3.140;2022-09-09T11:05:55;2.80;;;0.93;;
18142;SDS011;9197;50.930;3.140;2022-09-09T11:08:25;3.92;;;1.15;;
18142;SDS011;9197;50.930;3.140;2022-09-09T11:10:53;4.03;;;1.33;;
18142;SDS011;9197;50.930;3.140;2022-09-09T11:13:26;3.50;;;1.10;;
18142;SDS011;9197;50.930;3.140;2022-09-09T11:15:58;4.15;;;2.05;;
18142;SDS011;9197;50.930;3.140;2022-09-09T11:18:26;3.83;;;1.58;;
18142;SDS011;9197;50.930;3.140;2022-09-09T11:20:57;2.58;;;1.23;;
18142;SDS011;9197;50.930;3.140;2022-09-09T11:23:26;4.32;;;1.67;;
18142;SDS011;9197;50.930;3.140;2022-09-09T11:25:54;4.72;;;1.40;;
18142;SDS011;9197;50.930;3.140;2022-09-09T11:28:35;4.50;;;1.25;;
18142;SDS011;9197;50.930;3.140;2022-09-09T11:31:14;4.32;;;1.77;;
18142;SDS011;9197;50.930;3.140;2022-09-09T11:34:03;3.53;;;1.27;;
18142;SDS011;9197;50.930;3.140;2022-09-09T11:36:46;3.95;;;1.17;;
18142;SDS011;9197;50.930;3.140;2022-09-09T11:39:33;4.00;;;1.65;;
18142;SDS011;9197;50.930;3.140;2022-09-09T11:42:06;2.28;;;1.33;;
18142;SDS011;9197;50.930;3.140;2022-09-09T11:44:35;4.72;;;1.52;;
18142;SDS011;9197;50.930;3.140;2022-09-09T11:47:02;3.75;;;1.50;;
18142;SDS011;9197;50.930;3.140;2022-09-09T11:49:39;4.47;;;1.40;;
18142;SDS011;9197;50.930;3.140;2022-09-09T11:52:10;4.68;;;1.90;;
18142;SDS011;9197;50.930;3.140;2022-09-09T11:54:44;4.75;;;1.80;;
18142;SDS011;9197;50.930;3.140;2022-09-09T11:57:16;3.90;;;1.77;;
18142;SDS011;9197;50.930;3.140;2022-09-09T11:59:52;6.85;;;1.92;;
18142;SDS011;9197;50.930;3.140;2022-09-09T12:02:22;6.70;;;2.10;;
18142;SDS011;9197;50.930;3.140;2022-09-09T12:04:54;3.27;;;2.13;;
18142;SDS011;9197;50.930;3.140;2022-09-09T12:07:30;5.97;;;2.57;;
18142;SDS011;9197;50.930;3.140;2022-09-09T12:09:58;7.83;;;2.70;;
18142;SDS011;9197;50.930;3.140;2022-09-09T12:12:28;4.03;;;2.30;;
18142;SDS011;9197;50.930;3.140;2022-09-09T12:14:58;7.23;;;2.93;;
18142;SDS011;9197;50.930;3.140;2022-09-09T12:17:26;5.73;;;2.50;;
18142;SDS011;9197;50.930;3.140;2022-09-09T12:19:59;4.90;;;3.13;;
18142;SDS011;9197;50.930;3.140;2022-09-09T12:22:32;5.37;;;3.30;;
18142;SDS011;9197;50.930;3.140;2022-09-09T12:25:05;3.80;;;2.50;;
18142;SDS011;9197;50.930;3.140;2022-09-09T12:27:40;6.43;;;2.47;;
18142;SDS011;9197;50.930;3.140;2022-09-09T12:30:14;5.13;;;2.63;;
18142;SDS011;9197;50.930;3.140;2022-09-09T12:32:41;5.00;;;2.13;;
18142;SDS011;9197;50.930;3.140;2022-09-09T12:35:10;4.40;;;2.27;;
18142;SDS011;9197;50.930;3.140;2022-09-09T12:37:39;4.77;;;2.47;;
18142;SDS011;9197;50.930;3.140;2022-09-09T12:40:18;3.07;;;2.40;;
18142;SDS011;9197;50.930;3.140;2022-09-09T12:42:46;4.30;;;2.47;;
18142;SDS011;9197;50.930;3.140;2022-09-09T12:45:18;7.27;;;2.53;;
18142;SDS011;9197;50.930;3.140;2022-09-09T12:47:47;6.70;;;2.50;;
18142;SDS011;9197;50.930;3.140;2022-09-09T12:50:16;4.32;;;2.20;;
18142;SDS011;9197;50.930;3.140;2022-09-09T12:52:44;3.63;;;2.20;;
18142;SDS011;9197;50.930;3.140;2022-09-09T12:55:16;2.83;;;1.80;;
18142;SDS011;9197;50.930;3.140;2022-09-09T12:57:43;3.60;;;2.30;;
18142;SDS011;9197;50.930;3.140;2022-09-09T13:00:13;5.07;;;2.60;;
18142;SDS011;9197;50.930;3.140;2022-09-09T13:02:50;5.43;;;2.67;;
18142;SDS011;9197;50.930;3.140;2022-09-09T13:05:19;3.57;;;2.07;;
18142;SDS011;9197;50.930;3.140;2022-09-09T13:07:46;5.70;;;2.33;;
18142;SDS011;9197;50.930;3.140;2022-09-09T13:10:14;9.47;;;2.47;;
18142;SDS011;9197;50.930;3.140;2022-09-09T13:12:42;8.53;;;2.83;;
18142;SDS011;9197;50.930;3.140;2022-09-09T13:15:12;4.67;;;2.87;;
18142;SDS011;9197;50.930;3.140;2022-09-09T13:17:41;3.87;;;2.80;;
18142;SDS011;9197;50.930;3.140;2022-09-09T13:20:17;7.97;;;3.77;;
18142;SDS011;9197;50.930;3.140;2022-09-09T13:22:46;6.00;;;3.40;;
18142;SDS011;9197;50.930;3.140;2022-09-09T13:25:19;5.27;;;2.80;;
18142;SDS011;9197;50.930;3.140;2022-09-09T13:27:51;3.83;;;2.53;;
18142;SDS011;9197;50.930;3.140;2022-09-09T13:30:20;7.20;;;2.97;;
18142;SDS011;9197;50.930;3.140;2022-09-09T13:32:59;6.43;;;3.07;;
18142;SDS011;9197;50.930;3.140;2022-09-09T13:35:28;5.23;;;3.00;;
18142;SDS011;9197;50.930;3.140;2022-09-09T13:37:55;6.37;;;3.10;;
18142;SDS011;9197;50.930;3.140;2022-09-09T13:40:23;4.97;;;3.30;;
18142;SDS011;9197;50.930;3.140;2022-09-09T13:42:51;4.57;;;3.15;;
18142;SDS011;9197;50.930;3.140;2022-09-09T13:45:19;3.50;;;2.65;;
18142;SDS011;9197;50.930;3.140;2022-09-09T13:47:46;6.18;;;2.72;;
18142;SDS011;9197;50.930;3.140;2022-09-09T13:50:20;4.10;;;1.80;;
18142;SDS011;9197;50.930;3.140;2022-09-09T13:52:49;3.85;;;1.95;;
18142;SDS011;9197;50.930;3.140;2022-09-09T13:55:18;8.57;;;2.28;;
18142;SDS011;9197;50.930;3.140;2022-09-09T13:57:50;2.85;;;1.65;;
18142;SDS011;9197;50.930;3.140;2022-09-09T14:00:17;2.15;;;1.48;;
18142;SDS011;9197;50.930;3.140;2022-09-09T14:02:45;2.38;;;1.73;;
18142;SDS011;9197;50.930;3.140;2022-09-09T14:05:13;3.30;;;1.33;;
18142;SDS011;9197;50.930;3.140;2022-09-09T14:07:41;3.17;;;1.38;;
18142;SDS011;9197;50.930;3.140;2022-09-09T14:10:10;4.75;;;1.50;;
18142;SDS011;9197;50.930;3.140;2022-09-09T14:12:37;5.00;;;1.40;;
18142;SDS011;9197;50.930;3.140;2022-09-09T14:15:05;2.40;;;1.08;;
18142;SDS011;9197;50.930;3.140;2022-09-09T14:17:33;5.57;;;1.75;;
18142;SDS011;9197;50.930;3.140;2022-09-09T14:20:01;2.15;;;0.93;;
18142;SDS011;9197;50.930;3.140;2022-09-09T14:22:30;2.13;;;1.08;;
18142;SDS011;9197;50.930;3.140;2022-09-09T14:24:57;2.25;;;1.10;;
18142;SDS011;9197;50.930;3.140;2022-09-09T14:27:26;4.15;;;1.75;;
18142;SDS011;9197;50.930;3.140;2022-09-09T14:29:53;2.05;;;1.48;;
18142;SDS011;9197;50.930;3.140;2022-09-09T14:32:21;3.20;;;1.52;;
18142;SDS011;9197;50.930;3.140;2022-09-09T14:34:48;3.60;;;1.35;;
18142;SDS011;9197;50.930;3.140;2022-09-09T14:37:15;3.97;;;1.20;;
18142;SDS011;9197;50.930;3.140;2022-09-09T14:39:43;4.78;;;1.50;;
18142;SDS011;9197;50.930;3.140;2022-09-09T14:42:12;3.17;;;1.50;;
18142;SDS011;9197;50.930;3.140;2022-09-09T14:44:41;1.67;;;1.30;;
18142;SDS011;9197;50.930;3.140;2022-09-09T14:47:08;3.67;;;1.45;;
18142;SDS011;9197;50.930;3.140;2022-09-09T14:49:35;3.60;;;1.48;;
18142;SDS011;9197;50.930;3.140;2022-09-09T14:52:03;2.20;;;1.75;;
18142;SDS011;9197;50.930;3.140;2022-09-09T14:54:31;5.38;;;1.52;;
18142;SDS011;9197;50.930;3.140;2022-09-09T14:56:58;2.95;;;1.23;;
18142;SDS011;9197;50.930;3.140;2022-09-09T14:59:26;3.00;;;1.35;;
18142;SDS011;9197;50.930;3.140;2022-09-09T15:01:54;1.63;;;1.50;;
18142;SDS011;9197;50.930;3.140;2022-09-09T15:04:22;3.17;;;2.20;;
18142;SDS011;9197;50.930;3.140;2022-09-09T15:06:49;4.43;;;1.67;;
18142;SDS011;9197;50.930;3.140;2022-09-09T15:09:18;1.60;;;1.30;;
18142;SDS011;9197;50.930;3.140;2022-09-09T15:11:45;3.65;;;1.63;;
18142;SDS011;9197;50.930;3.140;2022-09-09T15:14:12;4.20;;;1.42;;
18142;SDS011;9197;50.930;3.140;2022-09-09T15:16:39;3.13;;;1.70;;
18142;SDS011;9197;50.930;3.140;2022-09-09T15:19:08;3.08;;;1.98;;